sensor_id;sensor_type;location;lat;lon;timestamp;pressure;altitude;pressure_sealevel;temperature;humidity
64683;BME280;51107;47.652;19.016;2022-08-19T00:00:10;99405.34;;;25.73;52.26
64683;BME280;51107;47.652;19.016;2022-08-19T00:02:39;99399.91;;;25.53;52.87
64683;BME280;51107;47.652;19.016;2022-08-19T00:05:17;99397.78;;;25.50;54.43
64683;BME280;51107;47.652;19.016;2022-08-19T00:07:48;99400.69;;;25.53;53.14
64683;BME280;51107;47.652;19.016;2022-08-19T00:10:17;99405.25;;;25.53;52.80
64683;BME280;51107;47.652;19.016;2022-08-19T00:12:47;99399.91;;;25.53;53.74
64683;BME280;51107;47.652;19.016;2022-08-19T00:15:17;99398.81;;;25.49;53.15
64683;BME280;51107;47.652;19.016;2022-08-19T00:17:48;99400.34;;;25.02;53.52
64683;BME280;51107;47.652;19.016;2022-08-19T00:20:20;99396.41;;;25.09;53.83
64683;BME280;51107;47.652;19.016;2022-08-19T00:22:49;99384.72;;;25.16;54.28
64683;BME280;51107;47.652;19.016;2022-08-19T00:25:17;99400.34;;;25.02;54.36
64683;BME280;51107;47.652;19.016;2022-08-19T00:27:57;99398.91;;;24.89;54.59
64683;BME280;51107;47.652;19.016;2022-08-19T00:30:26;99393.59;;;24.89;54.45
64683;BME280;51107;47.652;19.016;2022-08-19T00:32:56;99391.06;;;24.72;54.73
64683;BME280;51107;47.652;19.016;2022-08-19T00:35:25;99390.75;;;24.68;55.25
64683;BME280;51107;47.652;19.016;2022-08-19T00:37:55;99394.03;;;24.75;55.18
64683;BME280;51107;47.652;19.016;2022-08-19T00:40:24;99395.78;;;24.65;55.65
64683;BME280;51107;47.652;19.016;2022-08-19T00:42:53;99394.50;;;24.67;55.35
64683;BME280;51107;47.652;19.016;2022-08-19T00:45:24;99393.94;;;24.65;55.65
64683;BME280;51107;47.652;19.016;2022-08-19T00:47:54;99389.16;;;24.67;55.27
64683;BME280;51107;47.652;19.016;2022-08-19T00:50:23;99384.31;;;24.64;55.96
64683;BME280;51107;47.652;19.016;2022-08-19T00:52:52;99385.13;;;24.65;55.71
64683;BME280;51107;47.652;19.016;2022-08-19T00:55:24;99376.03;;;24.61;55.82
64683;BME280;51107;47.652;19.016;2022-08-19T00:57:59;99374.53;;;24.42;56.38
64683;BME280;51107;47.652;19.016;2022-08-19T01:00:29;99377.97;;;24.43;56.67
64683;BME280;51107;47.652;19.016;2022-08-19T01:02:59;99389.44;;;24.43;56.16
64683;BME280;51107;47.652;19.016;2022-08-19T01:05:28;99378.81;;;24.21;56.74
64683;BME280;51107;47.652;19.016;2022-08-19T01:07:59;99379.94;;;24.25;57.06
64683;BME280;51107;47.652;19.016;2022-08-19T01:10:31;99368.25;;;24.27;57.60
64683;BME280;51107;47.652;19.016;2022-08-19T01:13:04;99368.03;;;24.33;56.42
64683;BME280;51107;47.652;19.016;2022-08-19T01:15:38;99365.09;;;24.02;58.17
64683;BME280;51107;47.652;19.016;2022-08-19T01:18:10;99375.09;;;23.95;57.48
64683;BME280;51107;47.652;19.016;2022-08-19T01:20:40;99374.28;;;23.72;57.93
64683;BME280;51107;47.652;19.016;2022-08-19T01:23:10;99376.31;;;23.65;57.71
64683;BME280;51107;47.652;19.016;2022-08-19T01:25:42;99367.25;;;23.66;57.77
64683;BME280;51107;47.652;19.016;2022-08-19T01:28:22;99369.56;;;23.80;57.48
64683;BME280;51107;47.652;19.016;2022-08-19T01:31:01;99363.59;;;23.89;57.09
64683;BME280;51107;47.652;19.016;2022-08-19T01:33:35;99360.19;;;23.94;57.38
64683;BME280;51107;47.652;19.016;2022-08-19T01:36:09;99365.03;;;23.80;57.66
64683;BME280;51107;47.652;19.016;2022-08-19T01:38:40;99367.22;;;23.83;58.14
64683;BME280;51107;47.652;19.016;2022-08-19T01:41:11;99367.22;;;23.83;57.45
64683;BME280;51107;47.652;19.016;2022-08-19T01:43:40;99368.63;;;23.69;57.94
64683;BME280;51107;47.652;19.016;2022-08-19T01:46:30;99348.91;;;23.65;58.15
64683;BME280;51107;47.652;19.016;2022-08-19T01:48:59;99352.84;;;23.40;60.47
64683;BME280;51107;47.652;19.016;2022-08-19T01:51:28;99357.44;;;23.28;59.38
64683;BME280;51107;47.652;19.016;2022-08-19T01:54:08;99359.25;;;23.22;60.78
64683;BME280;51107;47.652;19.016;2022-08-19T01:56:37;99353.75;;;23.29;60.58
64683;BME280;51107;47.652;19.016;2022-08-19T01:59:16;99344.41;;;23.26;60.10
64683;BME280;51107;47.652;19.016;2022-08-19T02:01:45;99342.62;;;23.32;60.20
64683;BME280;51107;47.652;19.016;2022-08-19T02:04:14;99331.69;;;23.28;60.34
64683;BME280;51107;47.652;19.016;2022-08-19T02:06:42;99347.53;;;23.40;60.00
64683;BME280;51107;47.652;19.016;2022-08-19T02:09:11;99339.09;;;23.26;60.63
64683;BME280;51107;47.652;19.016;2022-08-19T02:11:41;99333.62;;;23.33;60.00
64683;BME280;51107;47.652;19.016;2022-08-19T02:14:09;99329.03;;;23.11;61.13
64683;BME280;51107;47.652;19.016;2022-08-19T02:16:38;99325.94;;;23.14;60.43
64683;BME280;51107;47.652;19.016;2022-08-19T02:19:08;99335.81;;;23.19;60.59
64683;BME280;51107;47.652;19.016;2022-08-19T02:21:36;99325.97;;;23.19;60.72
64683;BME280;51107;47.652;19.016;2022-08-19T02:24:05;99330.09;;;23.27;60.06
64683;BME280;51107;47.652;19.016;2022-08-19T02:26:34;99332.38;;;23.18;60.58
64683;BME280;51107;47.652;19.016;2022-08-19T02:29:02;99335.56;;;22.86;61.83
64683;BME280;51107;47.652;19.016;2022-08-19T02:31:31;99332.38;;;22.67;62.25
64683;BME280;51107;47.652;19.016;2022-08-19T02:34:00;99322.94;;;22.94;62.26
64683;BME280;51107;47.652;19.016;2022-08-19T02:36:28;99318.19;;;23.13;60.71
64683;BME280;51107;47.652;19.016;2022-08-19T02:38:58;99318.66;;;23.10;61.23
64683;BME280;51107;47.652;19.016;2022-08-19T02:41:29;99322.28;;;23.03;61.19
64683;BME280;51107;47.652;19.016;2022-08-19T02:44:00;99328.91;;;23.01;61.14
64683;BME280;51107;47.652;19.016;2022-08-19T02:46:49;99337.03;;;22.94;61.10
64683;BME280;51107;47.652;19.016;2022-08-19T02:49:19;99334.62;;;22.76;61.74
64683;BME280;51107;47.652;19.016;2022-08-19T02:51:47;99330.34;;;22.75;61.68
64683;BME280;51107;47.652;19.016;2022-08-19T02:54:16;99332.53;;;22.78;62.22
64683;BME280;51107;47.652;19.016;2022-08-19T02:56:44;99327.78;;;22.80;61.54
64683;BME280;51107;47.652;19.016;2022-08-19T02:59:14;99343.94;;;22.78;61.73
64683;BME280;51107;47.652;19.016;2022-08-19T03:01:43;99351.66;;;22.46;63.69
64683;BME280;51107;47.652;19.016;2022-08-19T03:04:13;99362.59;;;22.49;62.77
64683;BME280;51107;47.652;19.016;2022-08-19T03:06:44;99364.53;;;22.54;62.28
64683;BME280;51107;47.652;19.016;2022-08-19T03:09:14;99366.22;;;22.43;63.17
64683;BME280;51107;47.652;19.016;2022-08-19T03:11:42;99366.56;;;22.64;61.99
64683;BME280;51107;47.652;19.016;2022-08-19T03:14:10;99357.47;;;22.77;61.82
64683;BME280;51107;47.652;19.016;2022-08-19T03:16:46;99370.75;;;22.77;61.55
64683;BME280;51107;47.652;19.016;2022-08-19T03:19:17;99364.19;;;22.50;62.55
64683;BME280;51107;47.652;19.016;2022-08-19T03:21:47;99373.63;;;22.58;62.38
64683;BME280;51107;47.652;19.016;2022-08-19T03:24:16;99371.62;;;22.65;62.63
64683;BME280;51107;47.652;19.016;2022-08-19T03:26:48;99374.13;;;22.72;61.61
64683;BME280;51107;47.652;19.016;2022-08-19T03:29:17;99380.31;;;22.78;61.69
64683;BME280;51107;47.652;19.016;2022-08-19T03:32:03;99380.97;;;22.85;61.76
64683;BME280;51107;47.652;19.016;2022-08-19T03:34:34;99372.94;;;22.80;62.37
64683;BME280;51107;47.652;19.016;2022-08-19T03:37:07;99379.69;;;22.87;63.21
64683;BME280;51107;47.652;19.016;2022-08-19T03:39:37;99382.44;;;22.76;64.24
64683;BME280;51107;47.652;19.016;2022-08-19T03:42:06;99383.87;;;22.83;63.60
64683;BME280;51107;47.652;19.016;2022-08-19T03:44:54;99385.38;;;22.79;64.58
64683;BME280;51107;47.652;19.016;2022-08-19T03:47:23;99380.16;;;22.84;62.37
64683;BME280;51107;47.652;19.016;2022-08-19T03:49:51;99381.78;;;22.85;62.58
64683;BME280;51107;47.652;19.016;2022-08-19T03:52:20;99379.28;;;22.96;62.43
64683;BME280;51107;47.652;19.016;2022-08-19T03:54:48;99376.47;;;22.85;62.57
64683;BME280;51107;47.652;19.016;2022-08-19T03:57:16;99382.72;;;22.79;63.01
64683;BME280;51107;47.652;19.016;2022-08-19T03:59:45;99376.13;;;22.82;62.98
64683;BME280;51107;47.652;19.016;2022-08-19T04:02:13;99387.88;;;22.86;62.67
64683;BME280;51107;47.652;19.016;2022-08-19T04:04:43;99391.59;;;22.85;62.40
64683;BME280;51107;47.652;19.016;2022-08-19T04:07:13;99400.44;;;22.90;61.77
64683;BME280;51107;47.652;19.016;2022-08-19T04:09:44;99389.41;;;22.82;62.80
64683;BME280;51107;47.652;19.016;2022-08-19T04:12:12;99393.53;;;22.89;62.73
64683;BME280;51107;47.652;19.016;2022-08-19T04:14:40;99390.94;;;22.95;64.32
64683;BME280;51107;47.652;19.016;2022-08-19T04:17:09;99402.06;;;22.92;64.89
64683;BME280;51107;47.652;19.016;2022-08-19T04:19:37;99412.78;;;22.97;62.51
64683;BME280;51107;47.652;19.016;2022-08-19T04:22:11;99402.44;;;22.66;63.59
64683;BME280;51107;47.652;19.016;2022-08-19T04:24:40;99406.72;;;22.67;63.75
64683;BME280;51107;47.652;19.016;2022-08-19T04:27:08;99412.97;;;22.61;63.36
64683;BME280;51107;47.652;19.016;2022-08-19T04:29:36;99420.28;;;22.54;63.45
64683;BME280;51107;47.652;19.016;2022-08-19T04:32:07;99410.00;;;22.75;63.62
64683;BME280;51107;47.652;19.016;2022-08-19T04:34:37;99401.75;;;22.88;63.00
64683;BME280;51107;47.652;19.016;2022-08-19T04:37:27;99406.25;;;23.04;62.81
64683;BME280;51107;47.652;19.016;2022-08-19T04:40:04;99408.31;;;23.14;64.02
64683;BME280;51107;47.652;19.016;2022-08-19T04:42:52;99406.53;;;23.20;62.07
64683;BME280;51107;47.652;19.016;2022-08-19T04:45:21;99422.22;;;23.21;63.20
64683;BME280;51107;47.652;19.016;2022-08-19T04:47:54;99427.44;;;23.33;63.14
64683;BME280;51107;47.652;19.016;2022-08-19T04:50:44;99415.91;;;23.45;62.90
64683;BME280;51107;47.652;19.016;2022-08-19T04:53:12;99421.59;;;23.53;64.11
64683;BME280;51107;47.652;19.016;2022-08-19T04:55:41;99409.44;;;23.57;63.92
64683;BME280;51107;47.652;19.016;2022-08-19T04:58:10;99413.72;;;23.58;64.78
64683;BME280;51107;47.652;19.016;2022-08-19T05:00:39;99413.47;;;23.60;65.22
64683;BME280;51107;47.652;19.016;2022-08-19T05:03:08;99411.16;;;23.69;63.65
64683;BME280;51107;47.652;19.016;2022-08-19T05:05:41;99418.47;;;23.79;62.92
64683;BME280;51107;47.652;19.016;2022-08-19T05:08:13;99419.84;;;23.81;63.96
64683;BME280;51107;47.652;19.016;2022-08-19T05:10:58;99411.78;;;23.76;64.19
64683;BME280;51107;47.652;19.016;2022-08-19T05:13:27;99413.91;;;23.74;63.79
64683;BME280;51107;47.652;19.016;2022-08-19T05:15:57;99420.84;;;23.75;63.17
64683;BME280;51107;47.652;19.016;2022-08-19T05:18:26;99416.94;;;23.83;64.61
64683;BME280;51107;47.652;19.016;2022-08-19T05:21:17;99411.16;;;23.86;62.50
64683;BME280;51107;47.652;19.016;2022-08-19T05:24:05;99420.28;;;23.90;62.15
64683;BME280;51107;47.652;19.016;2022-08-19T05:26:38;99412.59;;;23.94;60.78
64683;BME280;51107;47.652;19.016;2022-08-19T05:29:08;99402.00;;;23.99;62.52
64683;BME280;51107;47.652;19.016;2022-08-19T05:31:37;99411.97;;;24.08;62.81
64683;BME280;51107;47.652;19.016;2022-08-19T05:34:09;99411.59;;;24.22;61.20
64683;BME280;51107;47.652;19.016;2022-08-19T05:36:48;99418.88;;;24.32;62.02
64683;BME280;51107;47.652;19.016;2022-08-19T05:39:19;99423.81;;;24.45;62.09
64683;BME280;51107;47.652;19.016;2022-08-19T05:41:51;99420.91;;;24.52;61.46
64683;BME280;51107;47.652;19.016;2022-08-19T05:44:20;99423.72;;;24.62;59.93
64683;BME280;51107;47.652;19.016;2022-08-19T05:46:50;99419.50;;;24.66;60.12
64683;BME280;51107;47.652;19.016;2022-08-19T05:49:22;99434.00;;;24.81;59.74
64683;BME280;51107;47.652;19.016;2022-08-19T05:51:51;99430.03;;;24.83;59.18
64683;BME280;51107;47.652;19.016;2022-08-19T05:54:19;99430.41;;;24.92;58.11
64683;BME280;51107;47.652;19.016;2022-08-19T05:56:49;99423.81;;;25.05;58.55
64683;BME280;51107;47.652;19.016;2022-08-19T05:59:18;99427.63;;;25.14;57.94
64683;BME280;51107;47.652;19.016;2022-08-19T06:01:49;99433.53;;;25.21;57.10
64683;BME280;51107;47.652;19.016;2022-08-19T06:04:23;99435.44;;;25.26;55.96
64683;BME280;51107;47.652;19.016;2022-08-19T06:06:52;99432.06;;;25.36;56.45
64683;BME280;51107;47.652;19.016;2022-08-19T06:09:22;99430.47;;;25.40;55.49
64683;BME280;51107;47.652;19.016;2022-08-19T06:11:53;99422.53;;;25.45;54.99
64683;BME280;51107;47.652;19.016;2022-08-19T06:14:29;99424.44;;;25.55;56.03
64683;BME280;51107;47.652;19.016;2022-08-19T06:17:00;99430.63;;;25.66;55.31
64683;BME280;51107;47.652;19.016;2022-08-19T06:19:34;99430.41;;;25.72;54.18
64683;BME280;51107;47.652;19.016;2022-08-19T06:22:08;99437.13;;;25.80;53.47
64683;BME280;51107;47.652;19.016;2022-08-19T06:24:36;99430.22;;;25.89;53.63
64683;BME280;51107;47.652;19.016;2022-08-19T06:27:04;99431.53;;;25.87;55.18
64683;BME280;51107;47.652;19.016;2022-08-19T06:29:36;99437.72;;;25.98;52.98
64683;BME280;51107;47.652;19.016;2022-08-19T06:32:04;99443.31;;;25.96;52.00
64683;BME280;51107;47.652;19.016;2022-08-19T06:34:34;99432.75;;;26.17;54.39
64683;BME280;51107;47.652;19.016;2022-08-19T06:37:03;99423.72;;;26.23;53.68
64683;BME280;51107;47.652;19.016;2022-08-19T06:39:34;99414.37;;;26.36;53.85
64683;BME280;51107;47.652;19.016;2022-08-19T06:42:04;99417.88;;;26.41;51.52
64683;BME280;51107;47.652;19.016;2022-08-19T06:44:39;99420.31;;;26.53;51.45
64683;BME280;51107;47.652;19.016;2022-08-19T06:47:13;99418.16;;;26.60;51.56
64683;BME280;51107;47.652;19.016;2022-08-19T06:49:56;99413.69;;;26.76;51.64
64683;BME280;51107;47.652;19.016;2022-08-19T06:52:34;99403.53;;;26.89;51.87
64683;BME280;51107;47.652;19.016;2022-08-19T06:55:04;99404.84;;;27.02;51.88
64683;BME280;51107;47.652;19.016;2022-08-19T06:57:34;99415.00;;;27.10;50.72
64683;BME280;51107;47.652;19.016;2022-08-19T07:00:04;99419.00;;;27.12;49.97
64683;BME280;51107;47.652;19.016;2022-08-19T07:02:43;99418.97;;;27.28;50.19
64683;BME280;51107;47.652;19.016;2022-08-19T07:05:20;99422.72;;;27.42;49.74
64683;BME280;51107;47.652;19.016;2022-08-19T07:07:49;99412.84;;;27.38;50.12
64683;BME280;51107;47.652;19.016;2022-08-19T07:10:18;99430.47;;;27.49;49.11
64683;BME280;51107;47.652;19.016;2022-08-19T07:12:47;99432.03;;;27.66;49.41
64683;BME280;51107;47.652;19.016;2022-08-19T07:15:17;99428.72;;;27.89;47.40
64683;BME280;51107;47.652;19.016;2022-08-19T07:17:45;99433.28;;;27.94;48.27
64683;BME280;51107;47.652;19.016;2022-08-19T07:20:19;99437.25;;;28.02;47.23
64683;BME280;51107;47.652;19.016;2022-08-19T07:22:47;99441.53;;;28.08;49.41
64683;BME280;51107;47.652;19.016;2022-08-19T07:25:17;99441.72;;;28.27;47.85
64683;BME280;51107;47.652;19.016;2022-08-19T07:27:48;99439.78;;;28.38;47.74
64683;BME280;51107;47.652;19.016;2022-08-19T07:30:22;99430.03;;;28.52;47.15
64683;BME280;51107;47.652;19.016;2022-08-19T07:32:53;99431.56;;;28.69;46.81
64683;BME280;51107;47.652;19.016;2022-08-19T07:35:22;99425.78;;;28.86;45.94
64683;BME280;51107;47.652;19.016;2022-08-19T07:37:51;99426.38;;;29.12;45.10
64683;BME280;51107;47.652;19.016;2022-08-19T07:40:21;99426.28;;;29.27;46.15
64683;BME280;51107;47.652;19.016;2022-08-19T07:42:49;99429.44;;;29.59;46.07
64683;BME280;51107;47.652;19.016;2022-08-19T07:45:17;99440.62;;;29.90;43.59
64683;BME280;51107;47.652;19.016;2022-08-19T07:47:46;99440.84;;;29.94;43.12
64683;BME280;51107;47.652;19.016;2022-08-19T07:50:19;99434.00;;;30.26;43.72
64683;BME280;51107;47.652;19.016;2022-08-19T07:52:49;99435.66;;;30.41;42.18
64683;BME280;51107;47.652;19.016;2022-08-19T07:55:24;99432.75;;;30.75;42.19
64683;BME280;51107;47.652;19.016;2022-08-19T07:58:14;99429.31;;;31.22;40.24
64683;BME280;51107;47.652;19.016;2022-08-19T08:00:43;99428.25;;;31.37;40.41
64683;BME280;51107;47.652;19.016;2022-08-19T08:03:14;99431.63;;;31.28;41.91
64683;BME280;51107;47.652;19.016;2022-08-19T08:05:43;99428.72;;;32.08;40.38
64683;BME280;51107;47.652;19.016;2022-08-19T08:08:30;99424.13;;;32.23;39.49
64683;BME280;51107;47.652;19.016;2022-08-19T08:11:00;99424.56;;;32.61;38.42
64683;BME280;51107;47.652;19.016;2022-08-19T08:13:28;99421.22;;;33.01;36.50
64683;BME280;51107;47.652;19.016;2022-08-19T08:15:57;99427.97;;;33.21;36.99
64683;BME280;51107;47.652;19.016;2022-08-19T08:18:26;99436.50;;;32.83;37.97
64683;BME280;51107;47.652;19.016;2022-08-19T08:20:58;99432.91;;;33.68;34.30
64683;BME280;51107;47.652;19.016;2022-08-19T08:23:26;99433.00;;;33.85;35.66
64683;BME280;51107;47.652;19.016;2022-08-19T08:25:57;99425.62;;;33.68;35.40
64683;BME280;51107;47.652;19.016;2022-08-19T08:28:26;99427.81;;;34.07;35.87
64683;BME280;51107;47.652;19.016;2022-08-19T08:30:58;99427.19;;;34.45;36.69
64683;BME280;51107;47.652;19.016;2022-08-19T08:33:28;99444.03;;;34.68;35.47
64683;BME280;51107;47.652;19.016;2022-08-19T08:36:04;99439.38;;;35.03;33.55
64683;BME280;51107;47.652;19.016;2022-08-19T08:38:33;99434.41;;;35.06;32.82
64683;BME280;51107;47.652;19.016;2022-08-19T08:41:31;99431.47;;;34.81;32.46
64683;BME280;51107;47.652;19.016;2022-08-19T08:44:03;99434.81;;;34.86;32.61
64683;BME280;51107;47.652;19.016;2022-08-19T08:46:48;99426.66;;;34.78;33.76
64683;BME280;51107;47.652;19.016;2022-08-19T08:52:05;99426.84;;;34.64;33.15
64683;BME280;51107;47.652;19.016;2022-08-19T08:54:39;99417.62;;;34.56;33.13
64683;BME280;51107;47.652;19.016;2022-08-19T08:57:39;99405.81;;;34.96;33.37
64683;BME280;51107;47.652;19.016;2022-08-19T09:00:18;99401.22;;;34.87;33.60
64683;BME280;51107;47.652;19.016;2022-08-19T09:02:47;99399.00;;;34.90;33.32
64683;BME280;51107;47.652;19.016;2022-08-19T09:05:19;99399.59;;;34.95;31.85
64683;BME280;51107;47.652;19.016;2022-08-19T09:11:00;99413.78;;;35.40;32.18
64683;BME280;51107;47.652;19.016;2022-08-19T09:16:17;99388.84;;;35.85;30.80
64683;BME280;51107;47.652;19.016;2022-08-19T09:18:58;99399.50;;;36.11;30.32
64683;BME280;51107;47.652;19.016;2022-08-19T09:21:29;99401.28;;;36.49;29.51
64683;BME280;51107;47.652;19.016;2022-08-19T09:24:02;99393.81;;;35.74;29.73
64683;BME280;51107;47.652;19.016;2022-08-19T09:26:31;99396.00;;;36.65;30.17
64683;BME280;51107;47.652;19.016;2022-08-19T09:29:19;99404.69;;;36.71;28.58
64683;BME280;51107;47.652;19.016;2022-08-19T09:31:49;99389.19;;;37.17;28.33
64683;BME280;51107;47.652;19.016;2022-08-19T09:34:18;99388.97;;;36.98;30.09
64683;BME280;51107;47.652;19.016;2022-08-19T09:36:50;99393.19;;;37.32;27.05
64683;BME280;51107;47.652;19.016;2022-08-19T09:39:22;99383.87;;;37.21;26.18
64683;BME280;51107;47.652;19.016;2022-08-19T09:41:50;99392.69;;;36.81;28.77
64683;BME280;51107;47.652;19.016;2022-08-19T09:44:19;99377.97;;;36.82;29.76
64683;BME280;51107;47.652;19.016;2022-08-19T09:46:50;99368.72;;;36.49;27.38
64683;BME280;51107;47.652;19.016;2022-08-19T09:49:19;99372.94;;;36.38;28.25
64683;BME280;51107;47.652;19.016;2022-08-19T09:51:52;99378.78;;;36.61;28.88
64683;BME280;51107;47.652;19.016;2022-08-19T09:54:24;99369.75;;;36.69;26.52
64683;BME280;51107;47.652;19.016;2022-08-19T09:56:54;99356.84;;;36.54;27.88
64683;BME280;51107;47.652;19.016;2022-08-19T09:59:22;99358.69;;;36.62;26.79
64683;BME280;51107;47.652;19.016;2022-08-19T10:01:51;99360.44;;;37.16;27.59
64683;BME280;51107;47.652;19.016;2022-08-19T10:04:20;99350.75;;;37.15;27.95
64683;BME280;51107;47.652;19.016;2022-08-19T10:06:55;99344.66;;;37.31;25.95
64683;BME280;51107;47.652;19.016;2022-08-19T10:09:24;99350.03;;;37.55;30.92
64683;BME280;51107;47.652;19.016;2022-08-19T10:11:53;99347.97;;;37.65;25.45
64683;BME280;51107;47.652;19.016;2022-08-19T10:14:22;99349.81;;;36.86;25.68
64683;BME280;51107;47.652;19.016;2022-08-19T10:16:51;99354.22;;;36.91;26.74
64683;BME280;51107;47.652;19.016;2022-08-19T10:19:20;99354.38;;;37.19;27.71
64683;BME280;51107;47.652;19.016;2022-08-19T10:21:53;99353.72;;;36.64;26.20
64683;BME280;51107;47.652;19.016;2022-08-19T10:24:27;99352.28;;;36.33;27.26
64683;BME280;51107;47.652;19.016;2022-08-19T10:26:56;99354.88;;;36.42;26.54
64683;BME280;51107;47.652;19.016;2022-08-19T10:29:27;99352.44;;;37.08;27.55
64683;BME280;51107;47.652;19.016;2022-08-19T10:32:05;99335.88;;;37.62;26.87
64683;BME280;51107;47.652;19.016;2022-08-19T10:34:37;99334.34;;;37.89;26.01
64683;BME280;51107;47.652;19.016;2022-08-19T10:37:17;99333.28;;;37.53;27.93
64683;BME280;51107;47.652;19.016;2022-08-19T10:39:58;99334.22;;;37.98;26.78
64683;BME280;51107;47.652;19.016;2022-08-19T10:42:26;99341.59;;;38.26;26.28
64683;BME280;51107;47.652;19.016;2022-08-19T10:44:55;99334.16;;;37.70;25.31
64683;BME280;51107;47.652;19.016;2022-08-19T10:47:25;99334.91;;;37.30;26.23
64683;BME280;51107;47.652;19.016;2022-08-19T10:49:59;99329.91;;;36.82;26.70
64683;BME280;51107;47.652;19.016;2022-08-19T10:52:49;99334.81;;;36.22;26.87
64683;BME280;51107;47.652;19.016;2022-08-19T10:55:20;99337.75;;;36.63;29.63
64683;BME280;51107;47.652;19.016;2022-08-19T10:58:15;99335.34;;;37.19;28.05
64683;BME280;51107;47.652;19.016;2022-08-19T11:00:52;99327.09;;;36.91;27.07
64683;BME280;51107;47.652;19.016;2022-08-19T11:03:21;99341.78;;;36.44;26.90
64683;BME280;51107;47.652;19.016;2022-08-19T11:06:04;99331.69;;;36.78;27.56
64683;BME280;51107;47.652;19.016;2022-08-19T11:08:34;99329.09;;;36.82;28.16
64683;BME280;51107;47.652;19.016;2022-08-19T11:11:04;99333.88;;;36.39;27.00
64683;BME280;51107;47.652;19.016;2022-08-19T11:13:37;99327.09;;;36.33;27.12
64683;BME280;51107;47.652;19.016;2022-08-19T11:16:07;99331.97;;;36.18;27.07
64683;BME280;51107;47.652;19.016;2022-08-19T11:18:41;99335.16;;;36.20;27.80
64683;BME280;51107;47.652;19.016;2022-08-19T11:21:18;99334.19;;;36.04;27.68
64683;BME280;51107;47.652;19.016;2022-08-19T11:23:49;99325.34;;;35.65;28.34
64683;BME280;51107;47.652;19.016;2022-08-19T11:26:19;99322.72;;;35.77;28.65
64683;BME280;51107;47.652;19.016;2022-08-19T11:28:48;99329.56;;;35.83;28.10
64683;BME280;51107;47.652;19.016;2022-08-19T11:31:23;99324.59;;;35.85;28.64
64683;BME280;51107;47.652;19.016;2022-08-19T11:33:57;99314.94;;;35.54;28.80
64683;BME280;51107;47.652;19.016;2022-08-19T11:36:28;99312.78;;;35.90;29.32
64683;BME280;51107;47.652;19.016;2022-08-19T11:38:57;99317.28;;;36.19;28.35
64683;BME280;51107;47.652;19.016;2022-08-19T11:41:25;99321.06;;;36.06;27.29
64683;BME280;51107;47.652;19.016;2022-08-19T11:43:54;99314.47;;;35.74;28.86
64683;BME280;51107;47.652;19.016;2022-08-19T11:46:25;99310.03;;;35.69;27.74
64683;BME280;51107;47.652;19.016;2022-08-19T11:48:54;99322.03;;;35.89;30.03
64683;BME280;51107;47.652;19.016;2022-08-19T11:51:24;99331.16;;;35.84;27.35
64683;BME280;51107;47.652;19.016;2022-08-19T11:53:54;99313.22;;;35.71;28.75
64683;BME280;51107;47.652;19.016;2022-08-19T11:56:24;99315.59;;;35.72;27.85
64683;BME280;51107;47.652;19.016;2022-08-19T11:58:54;99313.47;;;35.78;28.74
64683;BME280;51107;47.652;19.016;2022-08-19T12:01:26;99302.84;;;35.52;29.22
64683;BME280;51107;47.652;19.016;2022-08-19T12:03:56;99302.56;;;35.66;27.65
64683;BME280;51107;47.652;19.016;2022-08-19T12:06:27;99305.09;;;35.71;28.26
64683;BME280;51107;47.652;19.016;2022-08-19T12:08:59;99299.87;;;35.87;28.47
64683;BME280;51107;47.652;19.016;2022-08-19T12:11:29;99296.97;;;35.92;27.55
64683;BME280;51107;47.652;19.016;2022-08-19T12:14:02;99290.88;;;35.74;28.99
64683;BME280;51107;47.652;19.016;2022-08-19T12:16:31;99286.78;;;35.68;29.25
64683;BME280;51107;47.652;19.016;2022-08-19T12:19:02;99290.28;;;35.68;27.98
64683;BME280;51107;47.652;19.016;2022-08-19T12:21:33;99288.34;;;35.69;28.96
64683;BME280;51107;47.652;19.016;2022-08-19T12:24:06;99288.69;;;35.67;26.93
64683;BME280;51107;47.652;19.016;2022-08-19T12:26:35;99294.00;;;35.64;28.21
64683;BME280;51107;47.652;19.016;2022-08-19T12:29:21;99291.72;;;35.66;27.68
64683;BME280;51107;47.652;19.016;2022-08-19T12:31:51;99290.47;;;35.63;27.10
64683;BME280;51107;47.652;19.016;2022-08-19T12:34:20;99293.31;;;35.67;28.11
64683;BME280;51107;47.652;19.016;2022-08-19T12:36:48;99297.16;;;35.66;27.12
64683;BME280;51107;47.652;19.016;2022-08-19T12:39:17;99300.66;;;35.45;27.76
64683;BME280;51107;47.652;19.016;2022-08-19T12:41:46;99302.25;;;35.46;27.52
64683;BME280;51107;47.652;19.016;2022-08-19T12:44:23;99291.87;;;35.18;28.54
64683;BME280;51107;47.652;19.016;2022-08-19T12:46:59;99289.78;;;35.24;28.05
64683;BME280;51107;47.652;19.016;2022-08-19T12:49:29;99283.75;;;35.18;27.91
64683;BME280;51107;47.652;19.016;2022-08-19T12:52:19;99269.31;;;35.06;28.01
64683;BME280;51107;47.652;19.016;2022-08-19T12:54:52;99265.59;;;35.19;27.62
64683;BME280;51107;47.652;19.016;2022-08-19T12:57:23;99265.16;;;35.08;29.06
64683;BME280;51107;47.652;19.016;2022-08-19T13:00:06;99250.53;;;35.09;29.00
64683;BME280;51107;47.652;19.016;2022-08-19T13:02:41;99253.37;;;35.13;29.33
64683;BME280;51107;47.652;19.016;2022-08-19T13:05:14;99251.19;;;35.27;30.00
64683;BME280;51107;47.652;19.016;2022-08-19T13:07:46;99248.00;;;35.34;29.46
64683;BME280;51107;47.652;19.016;2022-08-19T13:10:18;99247.81;;;35.39;29.10
64683;BME280;51107;47.652;19.016;2022-08-19T13:12:48;99243.00;;;35.45;28.19
64683;BME280;51107;47.652;19.016;2022-08-19T13:15:19;99245.56;;;35.11;29.03
64683;BME280;51107;47.652;19.016;2022-08-19T13:17:52;99251.19;;;35.06;27.46
64683;BME280;51107;47.652;19.016;2022-08-19T13:20:23;99238.84;;;35.17;27.56
64683;BME280;51107;47.652;19.016;2022-08-19T13:22:51;99244.63;;;35.37;28.25